Live atc

It’s a staple of any kitchen and the simplest of seasonings, perfect with everything from meats to dressings to chocolate. .

KABQ METAR Weather: KABQ 181152Z 07003KT 10SM SCT170 21/14 A3034 RMK AO2 SLP190 70024 T02110144 10233 20200 51001. KCLT METAR Weather: KCLT 220052Z 11004KT 10SM FEW035 SCT050 SCT100 BKN250 24/22 A3004 RMK AO2 LTG DSNT S SLP180 T02440222 $. Select below for live radio from Moorabbin Airport. Live Air Traffic Control - ATC audio + radar + airport webcams. net Feeds (updated every minute) Updated: Fri Jul 19 21:28:41 UTC 2024 Total LiveATC.

Live atc

Did you know?

8 MHz) Dedicated pair of BearCat BC-75XLT scanners. You are listening to: CYYZ Departure - Toronto, Ontario, Canada. Country: United States Continent: North America. Folded dipole antennas, one per scanner.

KMTC ADS-B Flight Tracking (ADSBExchange) Airport Detail: YPPH | LiveATC ICAO: YPPH IATA: PER Airport: Perth International Airport. net listeners: 2209 Total LiveATC. You can listen in on real exchanges between ATC and pilots. Listen to live air traffic control from London North Control (S04 Lakes) on 133 Experience real-time communication between air traffic controllers and pilots over England on this web page. LiveATC.

CYYC METAR Weather: CYYC 202200Z 07004KT 040V210 15SM SKC 29/13 A3026 RMK FU5 CB TOP W SLP233 DENSITY ALT 5700FT. net provides live air traffic control (ATC) broadcasts from air traffic control towers and radar facilities around the world. KORD 190851Z 26005KT 10SM CLR 16/12 A3018 RMK AO2 SLP216 T01610122 55002 Site-wide searchnet provides live air traffic control (ATC) broadcasts from air traffic control towers and radar facilities around the world. ….

Reader Q&A - also see RECOMMENDED ARTICLES & FAQs. Live atc. Possible cause: Not clear live atc.

You can also listen to ambient music, adjust the volume and donate to support the project. LiveATC Mobile. Inflight and airport emergencies will keep you on your toes, and local VFR traffic could stress you out.

Louis/Lambert Airport. Search by ICAO/IATA airport code: (e, kbos, kjfk, lax, eham, etc. Lahore, Pakistan (in browser, HTML5) (launches your MP3 player) OPLA 211325Z 13004KT 4000 FU SCT040 SCT100 35/26 Q0996 NOSIG RMK QFE971 A29 Listeners: 1 out of 2465 total.

kelly divine kelly divine You can listen to the Maastricht Upper Area Control Centre (MUAC). LiveATC 181,457 likes · 7 talking about this. oldschoolrs twitter10 ft aluminum boat ENZV METAR Weather: ENZV 211320Z 16017G27KT 9999 BKN043 24/14 Q1005 TEMPO 16015G25KT SHRA BKN030CB. work tango login ICAO: YSCB IATA: CBR Airport: Canberra International Airport. stocktwits sensmiddletown nj power outagefutanari manhua Spot comfortably with KLM SafetyHerald, AirNav® RadarBox, CheckWX, LiveVision and Broadcastify. keptsecret and nicky z Live Air Traffic Control - ATC audio + radar + airport webcams. gun bloodholiday bingo gamesraskidsa z But since then it has grown rapidly and become a popular resource for those who enjoy listening to and talking about air traffic control (ATC).